You are not logged in, Click here to log in
ICAO: ZGGG Country: 中國廣東省省會廣州市
Latitude: 23.3959 Longitude: 113.308
Total Arrivals: 58 Total Departures: 67
Latest Arrival: CZ3393 (ZHCC-ZGGG)Jason. Li Latest Departure: HU798G (ZGGG-RCTP)Jason. Li
Scenery:
METAR : ZGGG 190800Z 31005MPS 280V360 0700 R02R/1500U R02L/1500U R01/1400U +TSRA SCT006 SCT026CB SCT026 26/25 Q1002 BECMG AT0830 16004MPS 4000 TSRA

廣州白雲國際機場CAN